Time;durP1;ratioP1;P1;durP2;ratioP2;P2;SDS_P1;SDS_P2;PMS_P1;PMS_P2;Temp;Humidity;BMP_temperature;BMP_pressure;BME280_temperature;BME280_humidity;BME280_pressure;Samples;Min_cycle;Max_cycle;Signal;HPM_P1;HPM_P2
2023/01/08 00:01:12;;;;;;;5.27;4.37;;;;;;;4.76;100.00;96231.91;5073649;28;20720;-58
2023/01/08 00:03:40;;;;;;;4.40;4.00;;;;;;;4.69;100.00;96239.41;5073311;28;20213;-58
2023/01/08 00:06:09;;;;;;;4.93;4.43;;;;;;;4.71;100.00;96236.69;5074017;28;20313;-59
2023/01/08 00:08:35;;;;;;;5.50;4.90;;;;;;;4.68;100.00;96239.50;5073681;28;20285;-58
2023/01/08 00:11:02;;;;;;;4.87;4.43;;;;;;;4.67;100.00;96227.38;5073391;28;20210;-59
2023/01/08 00:13:28;;;;;;;5.17;4.47;;;;;;;4.68;100.00;96222.00;5073545;28;20209;-58
2023/01/08 00:15:55;;;;;;;6.17;4.43;;;;;;;4.66;100.00;96228.34;5073782;28;20210;-58
2023/01/08 00:18:25;;;;;;;4.63;4.23;;;;;;;4.67;100.00;96223.00;5073550;28;20226;-58
2023/01/08 00:20:52;;;;;;;5.20;4.70;;;;;;;4.60;100.00;96211.31;5073770;28;20208;-60
2023/01/08 00:23:20;;;;;;;5.40;4.47;;;;;;;4.61;100.00;96206.88;5073545;28;20207;-60
2023/01/08 00:25:46;;;;;;;5.50;5.00;;;;;;;4.56;100.00;96209.88;5073408;28;20202;-60
2023/01/08 00:28:14;;;;;;;5.33;4.83;;;;;;;4.53;100.00;96205.69;5075731;28;20619;-60
2023/01/08 00:30:40;;;;;;;4.87;4.47;;;;;;;4.49;100.00;96203.44;5074008;28;20199;-61
2023/01/08 00:33:07;;;;;;;5.77;4.43;;;;;;;4.49;100.00;96200.81;5074324;28;20194;-61
2023/01/08 00:35:35;;;;;;;5.97;4.50;;;;;;;4.42;100.00;96194.38;5073692;28;20199;-60
2023/01/08 00:38:02;;;;;;;4.80;4.40;;;;;;;4.39;100.00;96186.78;5073464;28;20217;-60
2023/01/08 00:40:28;;;;;;;4.70;3.73;;;;;;;4.40;100.00;96188.41;5072744;28;20733;-61
2023/01/08 00:42:55;;;;;;;5.83;4.40;;;;;;;4.37;100.00;96176.41;5074111;28;20199;-61
2023/01/08 00:45:21;;;;;;;4.77;4.37;;;;;;;4.32;100.00;96181.13;5073478;28;20208;-61
2023/01/08 00:47:47;;;;;;;4.70;4.30;;;;;;;4.31;100.00;96178.66;5073896;28;20213;-60
2023/01/08 00:50:14;;;;;;;4.53;4.20;;;;;;;4.23;100.00;96181.84;5073990;28;20205;-60
2023/01/08 00:52:44;;;;;;;4.53;4.13;;;;;;;4.17;100.00;96177.09;5073181;28;20194;-58
2023/01/08 00:55:11;;;;;;;4.17;3.87;;;;;;;4.16;100.00;96178.03;5072686;28;20207;-59
2023/01/08 00:57:38;;;;;;;4.87;4.07;;;;;;;4.16;100.00;96185.03;5073486;28;20218;-59
2023/01/08 01:00:09;;;;;;;4.83;4.43;;;;;;;4.18;100.00;96186.56;5072151;28;20245;-58
2023/01/08 01:02:35;;;;;;;4.50;4.10;;;;;;;4.14;100.00;96179.94;5072345;28;20204;-59
2023/01/08 01:05:02;;;;;;;4.90;4.50;;;;;;;4.22;100.00;96174.09;5072583;28;20211;-59
2023/01/08 01:07:28;;;;;;;4.47;4.10;;;;;;;4.18;100.00;96183.16;5073101;28;20214;-58
2023/01/08 01:09:57;;;;;;;4.70;4.30;;;;;;;4.19;100.00;96182.19;5072493;28;20198;-59
2023/01/08 01:12:24;;;;;;;4.70;4.30;;;;;;;4.09;100.00;96183.81;5072544;28;20206;-60
2023/01/08 01:14:51;;;;;;;4.60;4.20;;;;;;;4.08;100.00;96176.91;5072448;28;20210;-59
2023/01/08 01:17:17;;;;;;;4.30;3.90;;;;;;;4.07;100.00;96183.13;5071791;28;21573;-61
2023/01/08 01:19:45;;;;;;;6.70;4.50;;;;;;;4.09;100.00;96179.44;5072913;28;20233;-59
2023/01/08 01:22:12;;;;;;;4.97;4.33;;;;;;;4.06;100.00;96173.59;5072851;28;20206;-59
2023/01/08 01:24:38;;;;;;;5.10;4.60;;;;;;;4.13;100.00;96170.41;5072343;28;20646;-60
2023/01/08 01:27:06;;;;;;;4.77;4.43;;;;;;;4.20;100.00;96170.78;5072848;28;20202;-58
2023/01/08 01:29:32;;;;;;;4.73;4.03;;;;;;;4.12;100.00;96168.72;5072313;28;20198;-60
2023/01/08 01:31:59;;;;;;;4.73;4.33;;;;;;;4.13;100.00;96177.41;5072417;28;20210;-60
2023/01/08 01:34:25;;;;;;;4.80;4.40;;;;;;;4.05;100.00;96182.38;5072314;28;20650;-60
2023/01/08 01:36:52;;;;;;;6.60;5.47;;;;;;;4.08;100.00;96183.00;5072113;28;20288;-60
2023/01/08 01:39:19;;;;;;;4.80;4.50;;;;;;;4.01;100.00;96179.16;5072466;28;20240;-60
2023/01/08 01:41:46;;;;;;;5.77;5.17;;;;;;;4.11;100.00;96184.56;5071979;28;20211;-59
2023/01/08 01:44:37;;;;;;;5.87;5.37;;;;;;;4.06;100.00;96176.22;5072579;28;20201;-60
2023/01/08 01:47:06;;;;;;;6.00;5.50;;;;;;;4.12;100.00;96173.97;5072663;28;20202;-60
2023/01/08 01:49:34;;;;;;;6.53;5.93;;;;;;;4.10;100.00;96180.28;5072807;28;20202;-60
2023/01/08 01:52:01;;;;;;;5.77;5.27;;;;;;;4.13;100.00;96174.81;5070865;28;20207;-60
2023/01/08 01:54:29;;;;;;;5.40;4.90;;;;;;;4.14;100.00;96176.47;5072422;28;20202;-60
2023/01/08 01:56:56;;;;;;;6.23;4.30;;;;;;;4.16;100.00;96174.56;5072776;28;20210;-60
2023/01/08 01:59:23;;;;;;;4.77;4.37;;;;;;;4.16;100.00;96169.34;5072557;28;20226;-60
2023/01/08 02:01:51;;;;;;;4.73;4.27;;;;;;;4.17;100.00;96165.78;5073969;28;20202;-60
2023/01/08 02:04:18;;;;;;;4.70;4.30;;;;;;;4.24;100.00;96162.59;5091461;28;20197;-61
2023/01/08 02:06:48;;;;;;;5.07;4.67;;;;;;;4.17;100.00;96156.16;5095272;28;20205;-59
2023/01/08 02:09:17;;;;;;;4.70;4.30;;;;;;;4.15;100.00;96151.97;5096326;28;20174;-59
2023/01/08 02:11:47;;;;;;;5.23;4.73;;;;;;;4.17;100.00;96127.38;5094528;28;20202;-57
2023/01/08 02:14:17;;;;;;;4.90;4.40;;;;;;;4.16;100.00;96117.84;5095719;28;20214;-60
2023/01/08 02:16:47;;;;;;;4.67;4.27;;;;;;;4.10;100.00;96118.31;5097015;28;20195;-60
2023/01/08 02:19:20;;;;;;;4.37;3.97;;;;;;;4.10;100.00;96107.00;5097435;28;20205;-58
2023/01/08 02:21:55;;;;;;;4.70;4.30;;;;;;;4.01;100.00;96101.53;5076694;28;20214;-61
2023/01/08 02:24:29;;;;;;;4.50;4.10;;;;;;;4.11;100.00;96101.66;5075064;28;20225;-60
2023/01/08 02:26:57;;;;;;;4.87;4.47;;;;;;;4.16;100.00;96089.06;5075071;28;20533;-60
2023/01/08 02:29:27;;;;;;;4.30;3.90;;;;;;;4.13;100.00;96085.84;5074261;28;20525;-60
2023/01/08 02:31:54;;;;;;;4.03;3.73;;;;;;;4.15;100.00;96073.47;5071153;28;20202;-61
2023/01/08 02:34:20;;;;;;;5.27;4.33;;;;;;;4.20;100.00;96066.09;5069706;28;20202;-60
2023/01/08 02:36:48;;;;;;;5.50;3.77;;;;;;;4.26;100.00;96078.72;5071377;28;20210;-60
2023/01/08 02:39:21;;;;;;;4.47;3.97;;;;;;;4.32;100.00;96076.44;5070723;28;20206;-60
2023/01/08 02:41:55;;;;;;;4.30;3.90;;;;;;;4.43;100.00;96083.47;5070963;28;20198;-60
2023/01/08 02:44:34;;;;;;;4.40;4.00;;;;;;;4.40;100.00;96081.09;5071322;28;20202;-60
2023/01/08 02:47:01;;;;;;;6.43;4.00;;;;;;;4.42;100.00;96066.94;5071313;28;20217;-60
2023/01/08 02:49:30;;;;;;;4.70;4.00;;;;;;;4.53;100.00;96060.88;5070877;28;20195;-60
2023/01/08 02:51:59;;;;;;;4.10;3.73;;;;;;;4.51;100.00;96049.69;5070810;28;20209;-59
2023/01/08 02:54:31;;;;;;;4.30;4.00;;;;;;;4.53;100.00;96057.41;5069652;28;20213;-60
2023/01/08 02:57:00;;;;;;;4.47;3.60;;;;;;;4.43;100.00;96058.13;5070831;28;20205;-60
2023/01/08 02:59:29;;;;;;;4.13;3.80;;;;;;;4.53;100.00;96046.94;5070658;28;20210;-60
2023/01/08 03:01:56;;;;;;;4.47;4.07;;;;;;;4.57;100.00;96049.19;5071114;28;20194;-60
2023/01/08 03:04:24;;;;;;;4.13;3.67;;;;;;;4.62;100.00;96057.53;5071104;28;20206;-58
2023/01/08 03:06:51;;;;;;;3.83;3.53;;;;;;;4.65;100.00;96052.03;5070490;28;20649;-60
2023/01/08 03:09:18;;;;;;;4.10;3.80;;;;;;;4.71;100.00;96050.72;5070542;28;20225;-60
2023/01/08 03:11:47;;;;;;;4.23;3.93;;;;;;;4.73;100.00;96047.03;5071008;28;20195;-60
2023/01/08 03:14:20;;;;;;;4.40;4.10;;;;;;;4.81;100.00;96044.66;5070145;28;20619;-59
2023/01/08 03:16:52;;;;;;;4.33;3.93;;;;;;;4.91;100.00;96047.34;5070545;28;20643;-58
2023/01/08 03:19:21;;;;;;;5.00;4.20;;;;;;;4.97;100.00;96042.44;5070602;28;20191;-60
2023/01/08 03:21:49;;;;;;;4.13;3.73;;;;;;;5.01;100.00;96033.38;5070599;28;20217;-59
2023/01/08 03:24:17;;;;;;;4.80;4.40;;;;;;;5.01;100.00;96043.88;5070047;28;20203;-60
2023/01/08 03:26:45;;;;;;;4.33;3.90;;;;;;;5.07;100.00;96044.31;5069782;28;20205;-60
2023/01/08 03:29:14;;;;;;;4.30;4.00;;;;;;;5.07;100.00;96041.69;5072442;28;20210;-60
2023/01/08 03:31:41;;;;;;;4.33;3.93;;;;;;;5.07;100.00;96044.31;5070510;28;20202;-60
2023/01/08 03:34:10;;;;;;;4.00;3.60;;;;;;;5.08;100.00;96043.38;5070708;28;20198;-60
2023/01/08 03:36:38;;;;;;;3.70;3.33;;;;;;;5.17;100.00;96046.09;5070400;28;20206;-60
2023/01/08 03:39:10;;;;;;;4.07;3.77;;;;;;;5.19;100.00;96043.31;5070344;28;20209;-60
2023/01/08 03:41:36;;;;;;;3.80;3.50;;;;;;;5.16;100.00;96035.72;5070421;28;20215;-59
2023/01/08 03:44:03;;;;;;;4.20;3.90;;;;;;;5.18;100.00;96041.66;5070109;28;20205;-60
2023/01/08 03:46:32;;;;;;;3.70;3.40;;;;;;;5.20;100.00;96047.63;5070169;28;20207;-61
2023/01/08 03:48:59;;;;;;;3.90;3.57;;;;;;;5.20;100.00;96047.63;5070393;28;20206;-60
2023/01/08 03:51:28;;;;;;;4.33;3.70;;;;;;;5.28;100.00;96046.03;5069979;28;20207;-60
2023/01/08 03:53:58;;;;;;;5.40;3.53;;;;;;;5.29;100.00;96036.38;5069862;28;20225;-59
2023/01/08 03:56:24;;;;;;;3.93;3.63;;;;;;;5.32;100.00;96041.34;5070260;28;20709;-60
2023/01/08 03:58:51;;;;;;;4.13;3.50;;;;;;;5.31;100.00;96039.72;5070484;28;20206;-58
2023/01/08 04:01:17;;;;;;;3.60;3.30;;;;;;;5.28;100.00;96035.53;5070083;28;20234;-59
2023/01/08 04:03:44;;;;;;;3.40;3.20;;;;;;;5.25;100.00;96033.16;5070632;28;20221;-59
2023/01/08 04:06:10;;;;;;;3.63;3.33;;;;;;;5.33;100.00;96033.38;5069955;28;21324;-60
2023/01/08 04:08:38;;;;;;;4.00;3.40;;;;;;;5.37;100.00;96031.34;5070234;28;20206;-60
2023/01/08 04:11:05;;;;;;;3.33;3.13;;;;;;;5.37;100.00;96028.72;5069804;28;20213;-60
2023/01/08 04:13:31;;;;;;;3.60;3.40;;;;;;;5.37;100.00;96028.72;5070401;28;20207;-59
2023/01/08 04:15:58;;;;;;;3.27;3.07;;;;;;;5.46;100.00;96027.94;5069393;28;20206;-60
2023/01/08 04:18:24;;;;;;;3.57;3.27;;;;;;;5.41;100.00;96023.09;5069910;28;20576;-60
2023/01/08 04:20:51;;;;;;;3.47;3.23;;;;;;;5.41;100.00;96030.97;5070233;28;20229;-60
2023/01/08 04:23:17;;;;;;;4.03;3.63;;;;;;;5.37;100.00;96033.97;5070059;28;20206;-60
2023/01/08 04:25:45;;;;;;;3.70;3.40;;;;;;;5.43;100.00;96038.69;5069791;28;20215;-59
2023/01/08 04:28:11;;;;;;;4.10;3.80;;;;;;;5.46;100.00;96044.50;5070043;28;20542;-60
2023/01/08 04:30:38;;;;;;;3.77;3.47;;;;;;;5.46;100.00;96041.06;5069889;28;20211;-58
2023/01/08 04:33:05;;;;;;;3.70;3.40;;;;;;;5.51;100.00;96046.75;5069595;28;20538;-60
2023/01/08 04:35:31;;;;;;;4.03;3.40;;;;;;;5.53;100.00;96052.69;5069182;28;20210;-60
2023/01/08 04:37:58;;;;;;;3.47;3.27;;;;;;;5.53;100.00;96049.28;5070520;28;20207;-60
2023/01/08 04:40:24;;;;;;;4.60;3.70;;;;;;;5.57;100.00;96053.28;5072511;28;20230;-59
2023/01/08 04:42:52;;;;;;;3.80;3.40;;;;;;;5.56;100.00;96044.59;5073017;28;20217;-59
2023/01/08 04:45:18;;;;;;;3.77;3.40;;;;;;;5.57;100.00;96045.41;5073127;28;20649;-60
2023/01/08 04:47:45;;;;;;;3.73;3.43;;;;;;;5.56;100.00;96039.38;5073169;28;20199;-60
2023/01/08 04:50:11;;;;;;;3.53;3.33;;;;;;;5.59;100.00;96027.78;5072927;28;20198;-60
2023/01/08 04:52:38;;;;;;;4.47;3.50;;;;;;;5.59;100.00;96033.84;5072968;28;20221;-60
2023/01/08 04:55:05;;;;;;;3.90;3.50;;;;;;;5.55;100.00;96037.69;5072711;28;20213;-58
2023/01/08 04:57:33;;;;;;;3.93;3.47;;;;;;;5.58;100.00;96042.69;5073357;28;20203;-60
2023/01/08 05:00:01;;;;;;;3.40;3.20;;;;;;;5.58;100.00;96041.84;5072121;28;20683;-60
2023/01/08 05:02:29;;;;;;;3.63;3.33;;;;;;;5.53;100.00;96044.84;5073165;28;20778;-60
2023/01/08 05:04:56;;;;;;;3.47;3.17;;;;;;;5.56;100.00;96039.38;5072917;28;21248;-60
2023/01/08 05:07:22;;;;;;;4.03;3.50;;;;;;;5.57;100.00;96034.91;5072927;28;20557;-59
2023/01/08 05:09:49;;;;;;;3.93;3.50;;;;;;;5.57;100.00;96030.50;5072081;28;20213;-59
2023/01/08 05:12:15;;;;;;;3.50;3.20;;;;;;;5.63;100.00;96045.75;5072900;28;20191;-60
2023/01/08 05:14:41;;;;;;;4.07;3.67;;;;;;;5.68;100.00;96038.31;5072850;28;20584;-60
2023/01/08 05:17:09;;;;;;;3.50;3.30;;;;;;;5.67;100.00;96036.66;5072639;28;20558;-60
2023/01/08 05:19:36;;;;;;;3.30;3.10;;;;;;;5.70;100.00;96046.91;5071888;28;20214;-59
2023/01/08 05:22:02;;;;;;;3.43;3.23;;;;;;;5.73;100.00;96048.44;5072261;28;20230;-59
2023/01/08 05:24:29;;;;;;;3.60;3.30;;;;;;;5.73;100.00;96051.91;5072048;28;20210;-60
2023/01/08 05:26:55;;;;;;;3.30;3.10;;;;;;;5.82;100.00;96053.75;5072892;28;20221;-58
2023/01/08 05:29:22;;;;;;;3.73;3.43;;;;;;;5.89;100.00;96043.59;5072598;28;20206;-59
2023/01/08 05:31:48;;;;;;;3.83;3.53;;;;;;;6.00;100.00;96052.22;5072027;28;20199;-58
2023/01/08 05:34:16;;;;;;;3.53;3.23;;;;;;;6.13;100.00;96064.34;5072191;28;20206;-59
2023/01/08 05:36:43;;;;;;;3.60;3.30;;;;;;;6.29;100.00;96056.81;5072793;28;20202;-60
2023/01/08 05:39:09;;;;;;;3.20;2.90;;;;;;;6.41;100.00;96038.19;5071817;28;21427;-58
2023/01/08 05:41:36;;;;;;;3.00;2.80;;;;;;;6.66;100.00;96052.66;5072620;28;20288;-59
2023/01/08 05:44:02;;;;;;;3.10;2.83;;;;;;;7.04;100.00;96053.72;5071957;28;20195;-60
2023/01/08 05:46:29;;;;;;;2.90;2.70;;;;;;;7.19;100.00;96036.59;5072679;28;20210;-60
2023/01/08 05:48:55;;;;;;;3.00;2.80;;;;;;;7.30;100.00;96046.97;5072079;28;20214;-61
2023/01/08 05:51:23;;;;;;;2.97;2.77;;;;;;;7.44;100.00;96057.91;5072637;28;20221;-59
2023/01/08 05:53:50;;;;;;;3.40;3.10;;;;;;;7.65;99.72;96059.59;5071433;28;20203;-59
2023/01/08 05:56:16;;;;;;;3.13;2.93;;;;;;;7.70;100.00;96060.81;5072397;28;20542;-60
2023/01/08 05:58:43;;;;;;;3.50;3.20;;;;;;;7.74;99.83;96041.16;5072719;28;20542;-60
2023/01/08 06:01:11;;;;;;;3.53;3.23;;;;;;;7.83;98.77;96036.84;5071714;28;20229;-58
2023/01/08 06:03:38;;;;;;;4.00;3.00;;;;;;;8.01;95.91;96043.03;5071384;28;20232;-60
2023/01/08 06:06:07;;;;;;;3.27;3.07;;;;;;;8.01;95.96;96043.88;5071724;28;20203;-60
2023/01/08 06:08:35;;;;;;;3.30;3.00;;;;;;;8.05;95.92;96043.56;5071692;28;20634;-60
2023/01/08 06:11:03;;;;;;;3.60;3.30;;;;;;;8.06;97.14;96040.81;5071280;28;20210;-61
2023/01/08 06:13:29;;;;;;;3.30;3.00;;;;;;;8.09;96.27;96039.69;5071457;28;20210;-59
2023/01/08 06:15:58;;;;;;;3.50;3.20;;;;;;;8.13;95.43;96051.59;5071652;28;20631;-60
2023/01/08 06:18:25;;;;;;;3.57;3.27;;;;;;;8.16;95.35;96056.59;5071148;28;20202;-60
2023/01/08 06:20:52;;;;;;;3.97;3.10;;;;;;;8.18;95.15;96054.66;5070402;28;20677;-60
2023/01/08 06:23:19;;;;;;;3.60;3.30;;;;;;;8.19;95.03;96051.03;5070851;28;20341;-60
2023/01/08 06:25:52;;;;;;;3.47;3.17;;;;;;;8.24;94.72;96048.81;5070933;28;20195;-59
2023/01/08 06:28:18;;;;;;;3.33;3.03;;;;;;;8.25;95.52;96032.03;5070603;28;20209;-60
2023/01/08 06:30:46;;;;;;;4.03;3.50;;;;;;;8.25;95.45;96019.72;5073564;28;20190;-59
2023/01/08 06:33:12;;;;;;;4.33;3.07;;;;;;;8.31;95.10;96039.41;5073476;28;20198;-58
2023/01/08 06:35:39;;;;;;;3.30;3.00;;;;;;;8.28;96.10;96022.09;5072553;28;20659;-60
2023/01/08 06:38:07;;;;;;;3.57;3.27;;;;;;;8.24;96.88;96041.75;5073699;28;20202;-60
2023/01/08 06:40:34;;;;;;;3.40;3.10;;;;;;;8.24;97.96;96033.84;5072726;28;20206;-58
2023/01/08 06:43:03;;;;;;;3.43;3.20;;;;;;;8.22;97.76;96029.69;5073394;28;20214;-58
2023/01/08 06:45:29;;;;;;;3.33;3.03;;;;;;;8.20;98.08;96026.34;5073391;28;20209;-59
2023/01/08 06:48:00;;;;;;;3.07;2.80;;;;;;;8.18;98.35;96016.00;5073077;28;20530;-60
2023/01/08 06:50:27;;;;;;;3.87;3.50;;;;;;;8.25;98.11;96014.44;5073968;28;20202;-59
2023/01/08 06:52:53;;;;;;;3.73;3.43;;;;;;;8.16;98.60;96010.00;5072533;28;20217;-58
2023/01/08 06:55:21;;;;;;;3.67;3.37;;;;;;;8.11;99.04;96006.16;5071871;28;20206;-60
2023/01/08 06:57:47;;;;;;;3.33;3.03;;;;;;;8.07;99.71;95995.09;5072828;28;20211;-60
2023/01/08 07:00:16;;;;;;;4.63;3.33;;;;;;;8.01;100.00;95990.38;5072038;28;20593;-59
2023/01/08 07:02:42;;;;;;;3.30;3.10;;;;;;;7.91;100.00;96000.94;5072810;28;20750;-59
2023/01/08 07:05:09;;;;;;;2.93;2.70;;;;;;;7.88;100.00;96008.28;5072532;28;20289;-59
2023/01/08 07:07:36;;;;;;;3.40;3.10;;;;;;;7.86;100.00;96026.03;5073845;28;20304;-59
2023/01/08 07:10:03;;;;;;;3.57;3.27;;;;;;;7.83;100.00;96024.50;5072706;28;20198;-60
2023/01/08 07:12:29;;;;;;;5.33;3.20;;;;;;;7.81;100.00;95997.50;5073286;28;20198;-60
2023/01/08 07:14:56;;;;;;;3.90;3.53;;;;;;;7.70;100.00;95973.97;5073096;28;20210;-60
2023/01/08 07:17:24;;;;;;;3.70;3.40;;;;;;;7.72;100.00;95968.59;5073040;28;20203;-60
2023/01/08 07:19:50;;;;;;;3.23;3.03;;;;;;;7.64;100.00;95964.03;5070796;28;20202;-59
2023/01/08 07:22:17;;;;;;;4.10;3.70;;;;;;;7.67;100.00;95981.31;5070677;28;20222;-60
2023/01/08 07:24:43;;;;;;;3.63;3.40;;;;;;;7.66;100.00;95998.06;5070406;28;20213;-61
2023/01/08 07:27:10;;;;;;;3.90;3.50;;;;;;;7.67;100.00;95994.47;5070579;28;20572;-60
2023/01/08 07:29:36;;;;;;;3.83;3.47;;;;;;;7.63;100.00;95998.34;5070411;28;20206;-59
2023/01/08 07:32:03;;;;;;;4.30;3.90;;;;;;;7.61;100.00;96009.03;5070673;28;20285;-59
2023/01/08 07:34:33;;;;;;;4.13;3.80;;;;;;;7.60;100.00;95996.84;5070827;28;20213;-59
2023/01/08 07:37:00;;;;;;;4.80;3.70;;;;;;;7.62;100.00;96002.78;5071007;28;20297;-59
2023/01/08 07:39:26;;;;;;;3.50;3.30;;;;;;;7.58;100.00;95998.78;5071053;28;20234;-59
2023/01/08 07:41:52;;;;;;;3.67;3.40;;;;;;;7.51;100.00;95997.66;5069914;28;20237;-58
2023/01/08 07:44:19;;;;;;;4.07;3.70;;;;;;;7.50;100.00;96002.13;5070348;28;20669;-59
2023/01/08 07:46:45;;;;;;;3.17;2.97;;;;;;;7.42;100.00;96004.63;5070873;28;20210;-58
2023/01/08 07:49:12;;;;;;;4.17;3.33;;;;;;;7.44;100.00;96028.13;5070619;28;20639;-58
2023/01/08 07:51:40;;;;;;;3.93;3.57;;;;;;;7.44;100.00;96031.59;5071191;28;20198;-58
2023/01/08 07:54:06;;;;;;;4.10;3.70;;;;;;;7.44;100.00;96043.91;5076947;28;20257;-60
2023/01/08 07:56:34;;;;;;;3.87;3.50;;;;;;;7.46;100.00;96048.09;5084739;28;20281;-59
2023/01/08 07:59:00;;;;;;;4.20;3.80;;;;;;;7.51;100.00;96060.81;5085964;28;20195;-58
2023/01/08 08:01:27;;;;;;;3.93;3.63;;;;;;;7.53;100.00;96058.06;5082612;28;20242;-59
2023/01/08 08:03:53;;;;;;;4.10;3.80;;;;;;;7.59;100.00;96057.50;5081065;28;20217;-59
2023/01/08 08:06:20;;;;;;;4.70;4.30;;;;;;;7.56;100.00;96053.34;5080631;28;20195;-58
2023/01/08 08:08:47;;;;;;;4.30;3.90;;;;;;;7.54;100.00;96057.94;5084185;28;20228;-59
2023/01/08 08:11:14;;;;;;;4.43;4.03;;;;;;;7.51;100.00;96051.13;5077881;28;20294;-59
2023/01/08 08:13:43;;;;;;;4.27;3.97;;;;;;;7.53;100.00;96053.63;5074465;28;20199;-58
2023/01/08 08:16:10;;;;;;;4.07;3.63;;;;;;;7.53;100.00;96051.00;5074221;28;20218;-58
2023/01/08 08:18:37;;;;;;;4.13;3.80;;;;;;;7.51;100.00;96047.66;5073886;28;20535;-59
2023/01/08 08:21:05;;;;;;;3.80;3.50;;;;;;;7.50;100.00;96065.28;5073896;28;20213;-58
2023/01/08 08:23:32;;;;;;;4.40;3.93;;;;;;;7.49;100.00;96062.75;5081770;28;20202;-58
2023/01/08 08:26:02;;;;;;;3.97;3.67;;;;;;;7.41;100.00;96065.25;5080185;28;20202;-58
2023/01/08 08:28:28;;;;;;;3.90;3.50;;;;;;;7.43;100.00;96068.59;5079373;28;20203;-59
2023/01/08 08:30:55;;;;;;;3.63;3.30;;;;;;;7.41;100.00;96070.50;5078706;28;20194;-58
2023/01/08 08:33:22;;;;;;;4.43;3.50;;;;;;;7.42;100.00;96069.53;5074561;28;20199;-58
2023/01/08 08:35:49;;;;;;;3.40;3.10;;;;;;;7.38;100.00;96076.03;5073763;28;20287;-59
2023/01/08 08:38:16;;;;;;;3.10;2.90;;;;;;;7.31;100.00;96075.75;5073773;28;20568;-58
2023/01/08 08:40:42;;;;;;;3.40;3.10;;;;;;;7.32;100.00;96081.88;5073157;28;20665;-58
2023/01/08 08:43:10;;;;;;;3.83;3.33;;;;;;;7.41;100.00;96083.66;5072993;28;20255;-59
2023/01/08 08:45:37;;;;;;;3.57;3.27;;;;;;;7.37;100.00;96090.16;5073185;28;20301;-58
2023/01/08 08:48:06;;;;;;;5.73;4.80;;;;;;;7.36;100.00;96083.25;5073171;28;20213;-60
2023/01/08 08:50:32;;;;;;;4.30;3.90;;;;;;;7.36;100.00;96088.50;5073521;28;20199;-60
2023/01/08 08:52:59;;;;;;;4.63;4.30;;;;;;;7.39;100.00;96093.50;5072932;28;20194;-59
2023/01/08 08:55:26;;;;;;;4.57;4.17;;;;;;;7.39;100.00;96083.81;5073020;28;20260;-59
2023/01/08 08:57:52;;;;;;;4.17;3.87;;;;;;;7.43;100.00;96087.84;5072586;28;20334;-59
2023/01/08 09:00:21;;;;;;;5.13;3.60;;;;;;;7.50;100.00;96090.75;5073295;28;20238;-60
2023/01/08 09:02:49;;;;;;;33.17;24.63;;;;;;;7.55;100.00;96088.50;5072755;28;20577;-58
2023/01/08 09:05:16;;;;;;;4.20;3.90;;;;;;;7.62;100.00;96089.63;5072684;28;20218;-59
2023/01/08 09:07:43;;;;;;;4.30;3.27;;;;;;;7.71;100.00;96087.97;5070922;28;20210;-59
2023/01/08 09:10:09;;;;;;;3.97;2.77;;;;;;;7.75;100.00;96079.66;5073336;28;20620;-58
2023/01/08 09:12:36;;;;;;;3.40;3.10;;;;;;;7.75;100.00;96084.94;5072664;28;20528;-59
2023/01/08 09:15:02;;;;;;;3.03;2.83;;;;;;;7.77;100.00;96072.44;5072610;28;20214;-59
2023/01/08 09:17:30;;;;;;;2.83;2.50;;;;;;;7.83;100.00;96092.13;5072782;28;20202;-57
2023/01/08 09:19:57;;;;;;;2.97;2.77;;;;;;;7.82;100.00;96091.28;5072614;28;20211;-59
2023/01/08 09:22:23;;;;;;;3.03;2.80;;;;;;;7.86;100.00;96086.59;5073023;28;20226;-59
2023/01/08 09:24:50;;;;;;;3.33;3.00;;;;;;;7.85;100.00;96085.75;5071916;28;20221;-59
2023/01/08 09:27:16;;;;;;;2.90;2.70;;;;;;;7.84;100.00;96084.09;5072352;28;20206;-59
2023/01/08 09:29:43;;;;;;;2.83;2.63;;;;;;;7.85;100.00;96091.00;5072740;28;20221;-59
2023/01/08 09:32:09;;;;;;;4.17;3.20;;;;;;;7.77;100.00;96082.13;5072445;28;20214;-59
2023/01/08 09:34:37;;;;;;;2.77;2.57;;;;;;;7.83;100.00;96085.03;5072530;28;20217;-59
2023/01/08 09:37:04;;;;;;;4.27;3.10;;;;;;;7.82;100.00;96075.50;5072668;28;20217;-59
2023/01/08 09:39:31;;;;;;;4.80;4.40;;;;;;;7.81;100.00;96079.09;5072058;28;20198;-59
2023/01/08 09:41:59;;;;;;;7.37;5.53;;;;;;;7.83;100.00;96087.66;5072122;28;20682;-59
2023/01/08 09:44:28;;;;;;;3.90;3.50;;;;;;;7.88;100.00;96096.00;5072725;28;20199;-59
2023/01/08 09:46:55;;;;;;;2.97;2.77;;;;;;;7.85;100.00;96085.75;5071876;28;20206;-59
2023/01/08 09:49:27;;;;;;;3.40;3.10;;;;;;;7.87;100.00;96083.78;5072271;28;20205;-60
2023/01/08 09:51:55;;;;;;;3.33;3.13;;;;;;;7.90;100.00;96072.97;5072094;28;20213;-59
2023/01/08 09:54:24;;;;;;;3.00;2.77;;;;;;;7.92;100.00;96078.13;5072073;28;20226;-59
2023/01/08 09:56:51;;;;;;;2.90;2.70;;;;;;;7.93;100.00;96070.09;5070985;28;20213;-59
2023/01/08 09:59:18;;;;;;;2.93;2.73;;;;;;;7.92;100.00;96075.47;5070529;28;21020;-59
2023/01/08 10:01:45;;;;;;;3.17;2.97;;;;;;;7.92;100.00;96071.06;5071530;28;20255;-59
2023/01/08 10:04:15;;;;;;;2.57;2.47;;;;;;;7.99;100.00;96069.53;5071823;28;20311;-58
2023/01/08 10:06:48;;;;;;;3.90;3.00;;;;;;;7.98;100.00;96070.47;5072674;28;20198;-60
2023/01/08 10:09:16;;;;;;;3.10;2.90;;;;;;;8.06;100.00;96058.41;5070637;28;20218;-59
2023/01/08 10:11:45;;;;;;;3.20;2.90;;;;;;;8.04;100.00;96057.75;5071969;28;20214;-59
2023/01/08 10:14:20;;;;;;;2.80;2.50;;;;;;;8.10;100.00;96051.91;5071186;28;20210;-59
2023/01/08 10:16:47;;;;;;;3.10;2.90;;;;;;;8.14;100.00;96048.00;5071722;28;20198;-58
2023/01/08 10:19:14;;;;;;;2.63;2.43;;;;;;;8.15;100.00;96042.59;5070198;28;20209;-59
2023/01/08 10:21:41;;;;;;;3.27;2.93;;;;;;;8.20;100.00;96031.63;5071393;28;20669;-57
2023/01/08 10:24:08;;;;;;;3.20;2.90;;;;;;;8.20;100.00;96027.19;5070744;28;20213;-58
2023/01/08 10:26:37;;;;;;;2.57;2.40;;;;;;;8.21;100.00;96017.50;5072076;28;20198;-59
2023/01/08 10:29:08;;;;;;;2.90;2.70;;;;;;;8.27;100.00;96011.66;5071092;28;20217;-58
2023/01/08 10:31:39;;;;;;;3.50;2.70;;;;;;;8.26;100.00;96002.91;5072185;28;20208;-58
2023/01/08 10:34:09;;;;;;;3.00;2.70;;;;;;;8.32;100.00;95991.00;5070822;28;20224;-58
2023/01/08 10:36:39;;;;;;;4.47;4.07;;;;;;;8.29;100.00;95983.41;5071625;28;20198;-58
2023/01/08 10:39:06;;;;;;;4.07;3.73;;;;;;;8.29;100.00;95988.66;5070949;28;20202;-57
2023/01/08 10:41:39;;;;;;;2.97;2.73;;;;;;;8.26;100.00;95970.47;5071880;28;20611;-58
2023/01/08 10:44:08;;;;;;;2.40;2.30;;;;;;;8.27;100.00;95972.97;5075376;28;20243;-58
2023/01/08 10:46:36;;;;;;;2.47;2.30;;;;;;;8.26;100.00;95968.66;5072432;28;20276;-58
2023/01/08 10:49:05;;;;;;;2.67;2.43;;;;;;;8.26;100.00;95965.19;5071865;28;20258;-58
2023/01/08 10:51:34;;;;;;;2.90;2.60;;;;;;;8.25;100.00;95953.03;5068411;28;20260;-57
2023/01/08 10:54:14;;;;;;;2.53;2.40;;;;;;;8.27;100.00;95946.63;5069161;28;20554;-59
2023/01/08 10:56:43;;;;;;;2.63;2.43;;;;;;;8.31;100.00;95944.56;5070482;28;20538;-57
2023/01/08 10:59:18;;;;;;;2.27;2.07;;;;;;;8.34;100.00;95950.38;5070207;28;20210;-56
2023/01/08 11:01:47;;;;;;;2.30;2.10;;;;;;;8.33;100.00;95943.44;5070019;28;20210;-59
2023/01/08 11:04:21;;;;;;;2.97;2.77;;;;;;;8.38;100.00;95940.38;5069659;28;20213;-56
2023/01/08 11:06:47;;;;;;;7.43;3.80;;;;;;;8.36;100.00;95937.06;5069828;28;20214;-56
2023/01/08 11:09:19;;;;;;;3.90;3.50;;;;;;;8.25;100.00;95919.63;5069250;28;20701;-57
2023/01/08 11:11:47;;;;;;;3.70;3.40;;;;;;;8.32;100.00;95914.63;5071199;28;20250;-58
2023/01/08 11:14:19;;;;;;;5.40;3.90;;;;;;;8.34;100.00;95921.41;5070474;28;20219;-57
2023/01/08 11:16:47;;;;;;;3.83;3.40;;;;;;;8.30;100.00;95913.91;5075872;28;20190;-62
2023/01/08 11:19:18;;;;;;;4.20;3.83;;;;;;;8.32;100.00;95910.19;5075392;28;20217;-55
2023/01/08 11:21:54;;;;;;;4.07;3.70;;;;;;;8.34;100.00;95894.22;5073085;28;20198;-60
2023/01/08 11:24:25;;;;;;;3.83;3.53;;;;;;;8.36;100.00;95894.91;5072982;28;20213;-59
2023/01/08 11:26:56;;;;;;;4.27;3.97;;;;;;;8.37;100.00;95886.00;5074085;28;20213;-58
2023/01/08 11:29:26;;;;;;;4.63;4.23;;;;;;;8.34;100.00;95870.50;5070591;28;20621;-58
2023/01/08 11:31:57;;;;;;;4.63;4.23;;;;;;;8.34;100.00;95859.97;5070066;28;20210;-59
2023/01/08 11:34:29;;;;;;;5.13;3.50;;;;;;;8.25;100.00;95855.56;5069331;28;20210;-58
2023/01/08 11:37:01;;;;;;;3.73;3.03;;;;;;;8.25;100.00;95855.56;5069431;28;20255;-58